WMKK/KUL METAR and TAF weather

Enter ICAO airport designator
Station Type Date Time Source
WMKK METAR 2022/01/18 06:00 UTC NOAA

WMKK 180600Z 35003KT 270V080 9999 FEW018 32/22 Q1010 NOSIG


Station Type Date Time Source
WMKK Decoded METAR 2022/01/18 06:00 UTC NOAA

Sepang/KL International Airport, Malaysia (WMKK) 02-44N 101-42E 22M
Jan 18, 2022 - 01:00 AM EST / 2022.01.18 0600 UTC
Wind: from the N (350 degrees) at 3 MPH (3 KT) (direction variable):0
Visibility: greater than 7 mile(s):0
Sky conditions: mostly clear
Temperature: 89 F (32 C)
Heat index: 95.0 F (35.0 C):1
Dew Point: 71 F (22 C)
Relative Humidity: 55%
Pressure (altimeter): 29.83 in. Hg (1010 hPa)
ob: WMKK 180600Z 35003KT 270V080 9999 FEW018 32/22 Q1010 NOSIG
cycle: 6

Station Type Date Time Source
WMKK TAF 2022/01/18 06:15 UTC NOAA

TAF WMKK 180500Z 1806/1912 02005KT 9999 FEW018 PROB30
TEMPO 1808/1812 5000 TSRA FEW017CB SCT020

Example: see airport list